createdAt,value
2018-01-25T00:00:50.637Z,6.60
2018-01-25T00:03:18.198Z,6.27
2018-01-25T00:05:45.896Z,6.83
2018-01-25T00:08:14.284Z,6.60
2018-01-25T00:10:41.900Z,7.33
2018-01-25T00:13:09.394Z,7.13
2018-01-25T00:15:36.915Z,6.40
2018-01-25T00:18:04.479Z,6.60
2018-01-25T00:20:31.932Z,6.70
2018-01-25T00:22:59.492Z,7.07
2018-01-25T00:25:26.984Z,6.90
2018-01-25T00:27:54.507Z,6.80
2018-01-25T00:30:21.965Z,6.53
2018-01-25T00:32:49.525Z,6.40
2018-01-25T00:35:17.084Z,6.17
2018-01-25T00:37:44.575Z,6.37
2018-01-25T00:40:12.100Z,6.17
2018-01-25T00:42:39.603Z,5.53
2018-01-25T00:45:07.117Z,6.10
2018-01-25T00:47:34.676Z,5.90
2018-01-25T00:50:02.236Z,5.63
2018-01-25T00:52:29.652Z,5.73
2018-01-25T00:54:57.252Z,5.27
2018-01-25T00:57:24.812Z,5.43
2018-01-25T00:59:52.372Z,5.23
2018-01-25T01:02:19.975Z,5.70
2018-01-25T01:04:47.377Z,5.30
2018-01-25T01:07:14.980Z,5.30
2018-01-25T01:09:42.506Z,5.93
2018-01-25T01:12:10.001Z,5.67
2018-01-25T01:14:37.561Z,5.93
2018-01-25T01:17:05.082Z,5.27
2018-01-25T01:19:32.643Z,5.37
2018-01-25T01:22:00.201Z,5.33
2018-01-25T01:24:27.620Z,4.77
2018-01-25T01:26:55.116Z,5.30
2018-01-25T01:29:22.609Z,5.40
2018-01-25T01:31:50.132Z,5.30
2018-01-25T01:34:17.695Z,5.20
2018-01-25T01:36:45.251Z,5.70
2018-01-25T01:39:12.811Z,5.20
2018-01-25T01:41:40.369Z,4.83
2018-01-25T01:44:07.930Z,5.50
2018-01-25T01:46:35.489Z,5.20
2018-01-25T01:49:03.048Z,4.80
2018-01-25T01:51:30.608Z,5.37
2018-01-25T01:53:58.024Z,4.93
2018-01-25T01:56:25.522Z,5.43
2018-01-25T01:58:53.081Z,4.93
2018-01-25T02:01:20.641Z,4.90
2018-01-25T02:03:48.097Z,5.03
2018-01-25T02:06:15.692Z,5.23
2018-01-25T02:08:43.148Z,4.73
2018-01-25T02:11:10.673Z,5.03
2018-01-25T02:13:38.232Z,4.90
2018-01-25T02:16:05.791Z,5.70
2018-01-25T02:18:33.354Z,4.80
2018-01-25T02:21:00.911Z,5.23
2018-01-25T02:23:28.470Z,5.20
2018-01-25T02:25:56.236Z,4.83
2018-01-25T02:28:23.794Z,4.83
2018-01-25T02:30:51.353Z,4.83
2018-01-25T02:33:18.913Z,5.10
2018-01-25T02:35:46.473Z,4.40
2018-01-25T02:38:14.032Z,4.67
2018-01-25T02:40:41.592Z,5.20
2018-01-25T02:43:09.082Z,5.03
2018-01-25T02:45:36.608Z,4.90
2018-01-25T02:48:04.053Z,4.53
2018-01-25T02:50:31.524Z,4.30
2018-01-25T02:52:59.080Z,4.77
2018-01-25T02:55:26.583Z,4.60
2018-01-25T02:57:54.028Z,4.13
2018-01-25T03:00:21.424Z,4.40
2018-01-25T03:02:49.014Z,4.43
2018-01-25T03:05:16.571Z,4.60
2018-01-25T03:07:44.136Z,4.80
2018-01-25T03:10:11.690Z,4.33
2018-01-25T03:12:39.249Z,4.80
2018-01-25T03:15:06.740Z,4.10
2018-01-25T03:17:34.161Z,5.07
2018-01-25T03:20:01.588Z,4.90
2018-01-25T03:22:29.010Z,4.70
2018-01-25T03:24:56.403Z,4.80
2018-01-25T03:27:23.845Z,4.87
2018-01-25T03:29:51.242Z,4.70
2018-01-25T03:32:18.660Z,4.70
2018-01-25T03:34:46.068Z,4.80
2018-01-25T03:37:13.512Z,4.30
2018-01-25T03:39:40.932Z,4.40
2018-01-25T03:42:08.362Z,5.07
2018-01-25T03:44:35.796Z,4.27
2018-01-25T03:47:03.283Z,4.87
2018-01-25T03:49:30.687Z,4.57
2018-01-25T03:51:58.254Z,4.60
2018-01-25T03:54:25.814Z,4.57
2018-01-25T03:56:53.271Z,4.53
2018-01-25T03:59:20.831Z,5.17
2018-01-25T04:01:48.390Z,5.00
2018-01-25T04:04:15.949Z,4.87
2018-01-25T04:06:43.444Z,4.50
2018-01-25T04:09:10.966Z,4.33
2018-01-25T04:11:38.525Z,5.13
2018-01-25T04:14:06.085Z,4.90
2018-01-25T04:16:33.644Z,4.77
2018-01-25T04:19:01.409Z,3.90
2018-01-25T04:21:28.900Z,4.10
2018-01-25T04:23:56.425Z,4.40
2018-01-25T04:26:23.985Z,4.03
2018-01-25T04:28:51.649Z,3.97
2018-01-25T04:31:19.053Z,4.20
2018-01-25T04:33:46.561Z,3.83
2018-01-25T04:36:14.120Z,4.40
2018-01-25T04:38:41.782Z,4.20
2018-01-25T04:41:09.341Z,4.37
2018-01-25T04:43:36.831Z,4.30
2018-01-25T04:46:04.248Z,4.83
2018-01-25T04:48:31.814Z,4.60
2018-01-25T04:50:59.212Z,4.43
2018-01-25T04:53:26.660Z,4.27
2018-01-25T04:55:54.186Z,4.47
2018-01-25T04:58:21.746Z,4.27
2018-01-25T05:00:49.305Z,3.90
2018-01-25T05:03:16.735Z,3.97
2018-01-25T05:05:44.321Z,4.00
2018-01-25T05:08:11.881Z,4.53
2018-01-25T05:10:39.316Z,4.40
2018-01-25T05:13:06.795Z,3.97
2018-01-25T05:15:34.354Z,4.07
2018-01-25T05:18:02.118Z,4.13
2018-01-25T05:20:29.516Z,4.00
2018-01-25T05:22:56.964Z,3.60
2018-01-25T05:25:24.489Z,3.80
2018-01-25T05:27:51.981Z,3.60
2018-01-25T05:30:19.506Z,4.17
2018-01-25T05:32:46.973Z,3.63
2018-01-25T05:35:14.523Z,3.53
2018-01-25T05:37:42.081Z,4.13
2018-01-25T05:40:09.528Z,3.70
2018-01-25T05:42:37.098Z,3.90
2018-01-25T05:45:04.658Z,4.30
2018-01-25T05:47:32.218Z,3.80
2018-01-25T05:49:59.776Z,3.80
2018-01-25T05:52:27.192Z,3.93
2018-01-25T05:54:54.895Z,3.60
2018-01-25T05:57:22.388Z,3.60
2018-01-25T05:59:49.853Z,4.00
2018-01-25T06:02:17.574Z,3.87
2018-01-25T06:04:45.233Z,4.20
2018-01-25T06:07:12.693Z,4.00
2018-01-25T06:09:40.150Z,3.60
2018-01-25T06:12:07.543Z,3.53
2018-01-25T06:14:35.064Z,3.33
2018-01-25T06:17:02.624Z,3.70
2018-01-25T06:19:30.020Z,3.50
2018-01-25T06:21:57.585Z,3.60
2018-01-25T06:24:25.199Z,3.80
2018-01-25T06:26:52.860Z,3.73
2018-01-25T06:29:20.366Z,3.67
2018-01-25T06:31:47.881Z,3.40
2018-01-25T06:34:15.437Z,3.47
2018-01-25T06:36:42.997Z,3.63
2018-01-25T06:39:11.223Z,3.73
2018-01-25T06:41:38.730Z,3.60
2018-01-25T06:44:06.221Z,3.43
2018-01-25T06:46:33.747Z,3.67
2018-01-25T06:49:01.201Z,3.60
2018-01-25T06:51:28.763Z,3.40
2018-01-25T06:53:56.256Z,3.10
2018-01-25T06:56:23.676Z,3.63
2018-01-25T06:58:51.238Z,3.17
2018-01-25T07:01:18.745Z,3.50
2018-01-25T07:03:46.288Z,3.67
2018-01-25T07:06:13.748Z,3.60
2018-01-25T07:08:41.272Z,3.53
2018-01-25T07:11:08.829Z,3.70
2018-01-25T07:13:36.388Z,3.10
2018-01-25T07:16:03.948Z,3.23
2018-01-25T07:18:31.395Z,3.60
2018-01-25T07:20:58.963Z,3.40
2018-01-25T07:23:26.524Z,3.40
2018-01-25T07:25:54.093Z,3.10
2018-01-25T07:28:21.573Z,3.63
2018-01-25T07:30:49.201Z,3.30
2018-01-25T07:33:16.703Z,3.33
2018-01-25T07:35:44.152Z,4.00
2018-01-25T07:38:11.678Z,3.43
2018-01-25T07:40:39.234Z,3.23
2018-01-25T07:43:06.656Z,3.43
2018-01-25T07:45:34.148Z,3.13
2018-01-25T07:48:01.640Z,3.17
2018-01-25T07:50:29.200Z,3.70
2018-01-25T07:52:56.725Z,3.50
2018-01-25T07:55:24.192Z,3.10
2018-01-25T07:58:09.709Z,3.60
2018-01-25T08:00:37.246Z,3.80
2018-01-25T08:03:04.716Z,3.23
2018-01-25T08:05:32.168Z,3.30
2018-01-25T08:07:59.639Z,3.20
2018-01-25T08:10:27.188Z,3.47
2018-01-25T08:12:54.666Z,3.63
2018-01-25T08:15:22.233Z,3.50
2018-01-25T08:17:49.832Z,3.63
2018-01-25T08:20:17.390Z,3.47
2018-01-25T08:22:44.885Z,3.40
2018-01-25T08:25:12.343Z,3.63
2018-01-25T08:27:39.863Z,3.50
2018-01-25T08:30:07.422Z,3.57
2018-01-25T08:32:34.984Z,3.97
2018-01-25T08:35:02.541Z,3.50
2018-01-25T08:37:30.011Z,3.73
2018-01-25T08:39:57.557Z,4.40
2018-01-25T08:42:25.049Z,3.70
2018-01-25T08:44:52.579Z,4.07
2018-01-25T08:47:20.134Z,3.97
2018-01-25T08:49:50.808Z,3.47
2018-01-25T08:52:18.254Z,3.60
2018-01-25T08:54:45.782Z,3.47
2018-01-25T08:57:13.272Z,3.40
2018-01-25T08:59:40.798Z,2.73
2018-01-25T09:02:08.406Z,2.70
2018-01-25T09:04:35.916Z,2.20
2018-01-25T09:07:03.409Z,2.60
2018-01-25T09:09:30.933Z,2.20
2018-01-25T09:11:58.492Z,2.03
2018-01-25T09:14:26.051Z,2.10
2018-01-25T09:16:53.611Z,1.90
2018-01-25T09:19:21.171Z,2.10
2018-01-25T09:21:48.730Z,1.87
2018-01-25T09:24:16.289Z,2.00
2018-01-25T09:26:43.796Z,1.90
2018-01-25T09:29:13.140Z,2.63
2018-01-25T09:31:40.709Z,2.47
2018-01-25T09:34:08.204Z,2.20
2018-01-25T09:36:35.672Z,2.13
2018-01-25T09:39:03.230Z,2.30
2018-01-25T09:41:30.741Z,2.30
2018-01-25T09:43:58.233Z,2.43
2018-01-25T09:46:25.865Z,2.40
2018-01-25T09:48:53.420Z,2.57
2018-01-25T09:51:20.919Z,2.70
2018-01-25T09:53:48.369Z,3.10
2018-01-25T09:56:15.898Z,2.70
2018-01-25T09:58:43.452Z,2.67
2018-01-25T10:01:11.012Z,2.30
2018-01-25T10:03:38.469Z,2.07
2018-01-25T10:06:05.960Z,2.20
2018-01-25T10:08:33.416Z,2.20
2018-01-25T10:11:00.880Z,2.27
2018-01-25T10:13:28.400Z,2.07
2018-01-25T10:15:56.061Z,2.00
2018-01-25T10:18:23.621Z,1.90
2018-01-25T10:20:51.180Z,1.60
2018-01-25T10:23:18.740Z,2.00
2018-01-25T10:25:46.241Z,2.10
2018-01-25T10:28:13.675Z,1.83
2018-01-25T10:30:41.213Z,1.87
2018-01-25T10:33:08.705Z,1.67
2018-01-25T10:35:36.160Z,1.60
2018-01-25T10:38:03.687Z,2.10
2018-01-25T10:40:31.246Z,1.77
2018-01-25T10:42:58.748Z,1.57
2018-01-25T10:45:26.263Z,1.80
2018-01-25T10:47:53.822Z,2.10
2018-01-25T10:50:21.383Z,2.23
2018-01-25T10:52:48.941Z,1.70
2018-01-25T10:55:16.500Z,1.63
2018-01-25T10:57:43.997Z,1.77
2018-01-25T11:00:11.652Z,1.90
2018-01-25T11:02:39.052Z,1.80
2018-01-25T11:05:06.637Z,1.70
2018-01-25T11:07:34.128Z,1.80
2018-01-25T11:10:01.756Z,1.90
2018-01-25T11:12:29.313Z,2.20
2018-01-25T11:14:57.397Z,1.90
2018-01-25T11:17:24.945Z,1.67
2018-01-25T11:19:52.606Z,1.97
2018-01-25T11:22:20.166Z,2.00
2018-01-25T11:24:47.667Z,1.80
2018-01-25T11:27:15.285Z,2.03
2018-01-25T11:29:42.776Z,1.87
2018-01-25T11:32:10.302Z,1.90
2018-01-25T11:34:37.867Z,2.03
2018-01-25T11:37:05.397Z,1.75
2018-01-25T11:39:33.016Z,1.90
2018-01-25T11:42:00.641Z,1.90
2018-01-25T11:44:28.100Z,1.90
2018-01-25T11:46:55.663Z,1.93
2018-01-25T11:49:23.221Z,2.20
2018-01-25T11:51:50.692Z,2.10
2018-01-25T11:54:18.336Z,2.30
2018-01-25T11:56:45.914Z,2.27
2018-01-25T11:59:13.457Z,2.30
2018-01-25T12:01:40.943Z,2.60
2018-01-25T12:04:08.409Z,2.30
2018-01-25T12:06:35.863Z,3.27
2018-01-25T12:09:03.489Z,3.27
2018-01-25T12:11:31.047Z,2.30
2018-01-25T12:13:58.541Z,2.37
2018-01-25T12:16:26.065Z,2.37
2018-01-25T12:18:53.556Z,2.40
2018-01-25T12:21:21.083Z,2.13
2018-01-25T12:23:48.640Z,2.30
2018-01-25T12:26:16.201Z,2.40
2018-01-25T12:28:43.691Z,2.13
2018-01-25T12:31:11.220Z,2.50
2018-01-25T12:33:38.620Z,2.90
2018-01-25T12:36:06.169Z,2.30
2018-01-25T12:38:33.624Z,2.63
2018-01-25T12:41:01.092Z,2.60
2018-01-25T12:43:28.604Z,2.30
2018-01-25T12:45:56.035Z,3.00
2018-01-25T12:48:23.723Z,2.20
2018-01-25T12:50:51.124Z,2.20
2018-01-25T12:53:18.638Z,2.40
2018-01-25T12:55:46.198Z,2.53
2018-01-25T12:58:13.757Z,2.27
2018-01-25T13:00:41.315Z,2.63
2018-01-25T13:03:08.984Z,2.10
2018-01-25T13:05:36.536Z,3.20
2018-01-25T13:08:04.096Z,3.67
2018-01-25T13:10:31.572Z,2.53
2018-01-25T13:12:59.214Z,2.50
2018-01-25T13:15:26.720Z,2.27
2018-01-25T13:17:54.141Z,2.40
2018-01-25T13:20:21.589Z,2.47
2018-01-25T13:22:49.024Z,3.03
2018-01-25T13:25:16.464Z,2.20
2018-01-25T13:27:43.869Z,2.60
2018-01-25T13:30:11.393Z,4.80
2018-01-25T13:32:38.999Z,3.87
2018-01-25T13:35:06.463Z,3.20
2018-01-25T13:37:33.848Z,3.53
2018-01-25T13:40:01.459Z,2.80
2018-01-25T13:42:29.006Z,2.83
2018-01-25T13:44:56.496Z,3.00
2018-01-25T13:47:24.022Z,3.27
2018-01-25T13:49:51.524Z,3.03
2018-01-25T13:52:24.875Z,2.93
2018-01-25T13:54:52.445Z,3.20
2018-01-25T13:57:19.995Z,3.13
2018-01-25T13:59:47.852Z,2.80
2018-01-25T14:02:15.276Z,3.20
2018-01-25T14:04:42.877Z,2.57
2018-01-25T14:07:10.272Z,2.90
2018-01-25T14:09:37.812Z,2.60
2018-01-25T14:12:05.351Z,2.70
2018-01-25T14:14:32.844Z,2.67
2018-01-25T14:17:00.469Z,3.10
2018-01-25T14:19:28.034Z,3.03
2018-01-25T14:21:55.589Z,2.50
2018-01-25T14:24:23.060Z,3.40
2018-01-25T14:26:50.612Z,3.40
2018-01-25T14:29:18.166Z,4.03
2018-01-25T14:31:45.657Z,3.80
2018-01-25T14:34:13.182Z,3.40
2018-01-25T14:36:40.627Z,3.30
2018-01-25T14:39:08.096Z,3.90
2018-01-25T14:41:35.656Z,4.00
2018-01-25T14:44:03.151Z,3.50
2018-01-25T14:46:30.604Z,3.67
2018-01-25T14:48:57.998Z,3.30
2018-01-25T14:51:25.621Z,3.40
2018-01-25T14:53:53.144Z,3.80
2018-01-25T14:56:20.641Z,3.93
2018-01-25T14:58:48.267Z,4.43
2018-01-25T15:01:15.824Z,5.30
2018-01-25T15:03:43.337Z,31.60
2018-01-25T15:06:10.859Z,22.70
2018-01-25T15:08:38.399Z,13.67
2018-01-25T15:11:05.959Z,6.60
2018-01-25T15:13:33.451Z,6.33
2018-01-25T15:16:00.975Z,5.87
2018-01-25T15:18:28.463Z,5.93
2018-01-25T15:20:55.940Z,3.80
2018-01-25T15:23:23.498Z,4.83
2018-01-25T15:25:56.844Z,6.27
2018-01-25T15:28:24.460Z,4.40
2018-01-25T15:30:51.899Z,5.33
2018-01-25T15:33:19.348Z,6.20
2018-01-25T15:35:46.802Z,9.33
2018-01-25T15:38:14.267Z,8.03
2018-01-25T15:40:41.792Z,5.70
2018-01-25T15:43:09.351Z,5.10
2018-01-25T15:45:36.845Z,8.57
2018-01-25T15:48:04.308Z,6.40
2018-01-25T15:50:31.700Z,5.50
2018-01-25T15:52:59.200Z,4.70
2018-01-25T15:55:26.633Z,4.80
2018-01-25T15:57:54.095Z,5.53
2018-01-25T16:00:21.654Z,5.40
2018-01-25T16:02:49.213Z,4.83
2018-01-25T16:05:16.621Z,4.40
2018-01-25T16:07:44.004Z,4.13
2018-01-25T16:10:11.710Z,4.30
2018-01-25T16:12:39.144Z,4.43
2018-01-25T16:15:06.703Z,4.53
2018-01-25T16:17:34.262Z,5.40
2018-01-25T16:20:01.829Z,5.87
2018-01-25T16:22:29.385Z,6.77
2018-01-25T16:24:56.884Z,6.50
2018-01-25T16:27:24.502Z,5.87
2018-01-25T16:29:52.002Z,5.47
2018-01-25T16:32:19.452Z,5.60
2018-01-25T16:34:46.923Z,5.20
2018-01-25T16:37:14.535Z,5.00
2018-01-25T16:39:42.029Z,5.20
2018-01-25T16:42:09.496Z,4.37
2018-01-25T16:44:37.112Z,4.07
2018-01-25T16:47:04.616Z,4.97
2018-01-25T16:49:32.226Z,4.93
2018-01-25T16:51:59.786Z,4.30
2018-01-25T16:54:27.346Z,4.87
2018-01-25T16:56:54.867Z,4.80
2018-01-25T16:59:22.475Z,4.13
2018-01-25T17:01:50.027Z,4.73
2018-01-25T17:04:17.793Z,4.77
2018-01-25T17:06:45.349Z,5.13
2018-01-25T17:09:12.840Z,6.03
2018-01-25T17:11:40.295Z,5.20
2018-01-25T17:14:07.823Z,6.03
2018-01-25T17:16:35.316Z,5.90
2018-01-25T17:19:02.764Z,5.30
2018-01-25T17:21:30.296Z,5.90
2018-01-25T17:23:57.855Z,6.25
2018-01-25T17:26:25.353Z,5.77
2018-01-25T17:28:52.870Z,6.00
2018-01-25T17:31:20.429Z,5.80
2018-01-25T17:33:47.924Z,5.70
2018-01-25T17:36:15.447Z,6.07
2018-01-25T17:38:42.936Z,6.53
2018-01-25T17:41:10.463Z,6.57
2018-01-25T17:43:38.023Z,6.00
2018-01-25T17:46:05.583Z,6.50
2018-01-25T17:48:33.032Z,6.40
2018-01-25T17:51:00.535Z,6.60
2018-01-25T17:53:27.980Z,9.07
2018-01-25T17:55:55.415Z,10.37
2018-01-25T17:58:22.852Z,10.90
2018-01-25T18:00:50.313Z,11.40
2018-01-25T18:03:17.816Z,10.20
2018-01-25T18:05:45.241Z,9.80
2018-01-25T18:08:12.708Z,9.07
2018-01-25T18:10:40.219Z,10.30
2018-01-25T18:13:07.662Z,9.37
2018-01-25T18:15:35.135Z,10.13
2018-01-25T18:18:02.541Z,9.53
2018-01-25T18:20:30.036Z,9.60
2018-01-25T18:22:57.542Z,10.20
2018-01-25T18:25:25.008Z,9.10
2018-01-25T18:27:52.421Z,8.27
2018-01-25T18:30:19.851Z,9.00
2018-01-25T18:32:47.261Z,10.80
2018-01-25T18:35:14.705Z,9.60
2018-01-25T18:37:42.157Z,10.67
2018-01-25T18:40:09.580Z,10.20
2018-01-25T18:42:37.007Z,11.80
2018-01-25T18:45:04.514Z,13.20
2018-01-25T18:47:31.955Z,12.03
2018-01-25T18:49:59.440Z,10.57
2018-01-25T18:52:26.911Z,9.90
2018-01-25T18:54:54.923Z,11.40
2018-01-25T18:57:22.422Z,12.13
2018-01-25T18:59:49.907Z,11.03
2018-01-25T19:02:17.379Z,10.87
2018-01-25T19:04:44.795Z,11.10
2018-01-25T19:07:12.222Z,11.60
2018-01-25T19:09:39.683Z,12.07
2018-01-25T19:12:07.155Z,12.17
2018-01-25T19:14:34.568Z,10.97
2018-01-25T19:17:02.225Z,12.03
2018-01-25T19:19:29.657Z,13.67
2018-01-25T19:21:57.068Z,15.43
2018-01-25T19:24:24.549Z,13.83
2018-01-25T19:26:51.985Z,10.27
2018-01-25T19:29:19.445Z,11.57
2018-01-25T19:31:46.884Z,10.07
2018-01-25T19:34:14.361Z,12.37
2018-01-25T19:36:41.776Z,11.27
2018-01-25T19:39:09.224Z,11.10
2018-01-25T19:41:36.664Z,12.23
2018-01-25T19:44:04.119Z,12.93
2018-01-25T19:46:31.605Z,13.50
2018-01-25T19:48:59.016Z,14.53
2018-01-25T19:51:26.461Z,13.17
2018-01-25T19:53:53.928Z,14.20
2018-01-25T19:56:21.412Z,14.47
2018-01-25T19:58:48.847Z,13.80
2018-01-25T20:01:16.296Z,13.43
2018-01-25T20:03:43.716Z,13.80
2018-01-25T20:06:11.193Z,14.30
2018-01-25T20:08:38.640Z,16.10
2018-01-25T20:11:06.064Z,15.60
2018-01-25T20:13:33.544Z,16.60
2018-01-25T20:16:01.014Z,15.85
2018-01-25T20:18:28.496Z,15.40
2018-01-25T20:20:55.991Z,15.50
2018-01-25T20:23:23.426Z,16.45
2018-01-25T20:25:50.869Z,16.50
2018-01-25T20:28:18.312Z,15.90
2018-01-25T20:30:45.759Z,14.40
2018-01-25T20:33:13.208Z,16.30
2018-01-25T20:35:40.639Z,16.30
2018-01-25T20:38:08.104Z,15.35
2018-01-25T20:40:35.765Z,16.00
2018-01-25T20:43:03.200Z,15.97
2018-01-25T20:45:30.641Z,14.80
2018-01-25T20:47:58.113Z,14.75
2018-01-25T20:50:25.544Z,14.10
2018-01-25T20:52:52.999Z,13.13
2018-01-25T20:55:24.268Z,13.93
2018-01-25T20:57:51.684Z,13.10
2018-01-25T21:00:19.137Z,12.63
2018-01-25T21:02:46.600Z,13.90
2018-01-25T21:05:14.079Z,14.80
2018-01-25T21:07:41.547Z,16.07
2018-01-25T21:10:08.995Z,16.90
2018-01-25T21:12:36.456Z,18.50
2018-01-25T21:15:03.917Z,18.07
2018-01-25T21:17:31.332Z,17.13
2018-01-25T21:19:58.744Z,18.03
2018-01-25T21:22:26.846Z,17.30
2018-01-25T21:24:54.360Z,17.87
2018-01-25T21:27:21.777Z,18.90
2018-01-25T21:29:49.225Z,18.50
2018-01-25T21:32:16.638Z,21.30
2018-01-25T21:34:44.100Z,19.60
2018-01-25T21:37:11.569Z,20.50
2018-01-25T21:39:39.121Z,20.13
2018-01-25T21:42:06.573Z,21.70
2018-01-25T21:44:34.031Z,20.10
2018-01-25T21:47:01.460Z,20.37
2018-01-25T21:49:28.953Z,20.50
2018-01-25T21:51:56.416Z,20.73
2018-01-25T21:54:24.196Z,22.80
2018-01-25T21:56:51.609Z,21.10
2018-01-25T21:59:19.064Z,20.93
2018-01-25T22:01:46.534Z,22.00
2018-01-25T22:04:13.956Z,21.17
2018-01-25T22:06:41.454Z,22.40
2018-01-25T22:09:08.913Z,21.20
2018-01-25T22:11:36.320Z,22.27
2018-01-25T22:14:03.750Z,23.37
2018-01-25T22:16:31.236Z,21.83
2018-01-25T22:18:58.677Z,23.80
2018-01-25T22:21:26.085Z,25.80
2018-01-25T22:23:53.654Z,25.50
2018-01-25T22:26:21.230Z,24.53
2018-01-25T22:28:48.660Z,26.97
2018-01-25T22:31:16.231Z,24.70
2018-01-25T22:33:43.789Z,23.90
2018-01-25T22:36:11.349Z,24.30
2018-01-25T22:38:38.806Z,22.13
2018-01-25T22:41:06.300Z,22.60
2018-01-25T22:43:33.924Z,22.93
2018-01-25T22:46:01.485Z,22.40
2018-01-25T22:48:28.979Z,24.77
2018-01-25T22:50:56.502Z,24.33
2018-01-25T22:53:24.060Z,27.53
2018-01-25T22:55:51.620Z,24.87
2018-01-25T22:58:19.129Z,24.40
2018-01-25T23:00:48.479Z,25.13
2018-01-25T23:03:16.038Z,27.53
2018-01-25T23:05:43.533Z,24.00
2018-01-25T23:08:11.098Z,25.50
2018-01-25T23:10:38.618Z,24.57
2018-01-25T23:13:06.178Z,23.57
2018-01-25T23:15:33.733Z,24.20
2018-01-25T23:18:01.136Z,22.90
2018-01-25T23:20:28.586Z,23.87
2018-01-25T23:22:56.207Z,22.90
2018-01-25T23:25:23.767Z,22.00
2018-01-25T23:27:51.530Z,21.33
2018-01-25T23:30:19.028Z,21.33
2018-01-25T23:32:46.548Z,21.70
2018-01-25T23:35:14.055Z,21.27
2018-01-25T23:37:41.671Z,21.50
2018-01-25T23:40:09.226Z,20.27
2018-01-25T23:42:36.683Z,19.93
2018-01-25T23:45:04.242Z,18.70
2018-01-25T23:47:31.802Z,19.07
2018-01-25T23:49:59.361Z,17.40
2018-01-25T23:52:26.921Z,18.17
2018-01-25T23:54:54.377Z,17.00
2018-01-25T23:57:21.937Z,16.20
2018-01-25T23:59:49.473Z,17.67
